createdAt,value
2018-12-19T00:01:34.667Z,100816.97
2018-12-19T00:04:03.073Z,100823.31
2018-12-19T00:06:31.265Z,100807.41
2018-12-19T00:09:03.168Z,100801.20
2018-12-19T00:11:29.615Z,100793.99
2018-12-19T00:13:58.079Z,100788.53
2018-12-19T00:16:26.201Z,100792.76
2018-12-19T00:18:54.415Z,100789.77
2018-12-19T00:21:22.546Z,100782.53
2018-12-19T00:23:50.699Z,100774.27
2018-12-19T00:26:18.862Z,100768.87
2018-12-19T00:28:48.189Z,100769.59
2018-12-19T00:31:16.367Z,100777.20
2018-12-19T00:33:44.714Z,100775.32
2018-12-19T00:36:12.887Z,100786.99
2018-12-19T00:38:40.989Z,100778.45
2018-12-19T00:41:09.161Z,100773.63
2018-12-19T00:43:37.309Z,100778.30
2018-12-19T00:46:05.661Z,100776.52
2018-12-19T00:48:33.995Z,100787.13
2018-12-19T00:51:02.304Z,100784.69
2018-12-19T00:53:30.594Z,100785.95
2018-12-19T00:55:58.901Z,100779.16
2018-12-19T00:58:27.437Z,100780.64
2018-12-19T01:00:55.919Z,100781.09
2018-12-19T01:03:24.095Z,100779.91
2018-12-19T01:05:52.268Z,100782.64
2018-12-19T01:08:20.541Z,100778.52
2018-12-19T01:10:48.953Z,100789.47
2018-12-19T01:13:17.170Z,100786.27
2018-12-19T01:15:45.478Z,100796.09
2018-12-19T01:18:13.660Z,100790.42
2018-12-19T01:20:41.999Z,100781.92
2018-12-19T01:23:10.160Z,100788.59
2018-12-19T01:25:38.312Z,100786.32
2018-12-19T01:28:06.446Z,100780.10
2018-12-19T01:30:34.632Z,100776.94
2018-12-19T01:33:02.800Z,100772.16
2018-12-19T01:35:31.157Z,100772.01
2018-12-19T01:37:59.298Z,100767.33
2018-12-19T01:40:27.574Z,100759.23
2018-12-19T01:42:55.702Z,100761.81
2018-12-19T01:45:24.058Z,100754.59
2018-12-19T01:47:52.716Z,100763.95
2018-12-19T01:50:21.040Z,100756.28
2018-12-19T01:52:49.258Z,100750.20
2018-12-19T01:55:17.443Z,100749.43
2018-12-19T01:57:45.640Z,100751.45
2018-12-19T02:00:14.124Z,100751.45
2018-12-19T02:02:42.333Z,100750.13
2018-12-19T02:05:10.601Z,100748.44
2018-12-19T02:07:38.743Z,100741.77
2018-12-19T02:10:07.142Z,100733.56
2018-12-19T02:12:35.275Z,100733.41
2018-12-19T02:15:03.853Z,100727.74
2018-12-19T02:17:32.015Z,100718.76
2018-12-19T02:20:00.296Z,100717.44
2018-12-19T02:22:28.463Z,100719.55
2018-12-19T02:24:56.781Z,100716.70
2018-12-19T02:27:25.441Z,100718.26
2018-12-19T02:29:54.181Z,100719.73
2018-12-19T02:32:22.648Z,100717.31
2018-12-19T02:34:51.078Z,100722.51
2018-12-19T02:37:19.169Z,100717.91
2018-12-19T02:39:47.473Z,100711.67
2018-12-19T02:42:15.589Z,100710.53
2018-12-19T02:44:43.869Z,100704.16
2018-12-19T02:47:11.979Z,100709.03
2018-12-19T02:49:40.102Z,100697.61
2018-12-19T02:52:08.229Z,100690.39
2018-12-19T02:54:36.461Z,100690.39
2018-12-19T02:57:04.759Z,100684.76
2018-12-19T02:59:32.929Z,100681.89
2018-12-19T03:02:01.206Z,100677.83
2018-12-19T03:04:29.308Z,100677.64
2018-12-19T03:06:57.403Z,100672.27
2018-12-19T03:09:25.582Z,100669.62
2018-12-19T03:11:53.981Z,100658.23
2018-12-19T03:14:22.173Z,100650.77
2018-12-19T03:16:50.512Z,100648.95
2018-12-19T03:19:18.681Z,100661.92
2018-12-19T03:21:46.990Z,100652.88
2018-12-19T03:24:15.180Z,100645.41
2018-12-19T03:26:44.426Z,100647.19
2018-12-19T03:29:12.575Z,100637.17
2018-12-19T03:31:40.738Z,100632.05
2018-12-19T03:34:08.895Z,100628.86
2018-12-19T03:36:37.321Z,100635.94
2018-12-19T03:39:07.170Z,100637.33
2018-12-19T03:41:35.645Z,100627.53
2018-12-19T03:44:03.847Z,100627.21
2018-12-19T03:46:31.957Z,100627.05
2018-12-19T03:49:00.057Z,100623.37
2018-12-19T03:51:28.340Z,100628.08
2018-12-19T03:53:56.528Z,100617.91
2018-12-19T03:56:24.707Z,100614.88
2018-12-19T03:58:53.034Z,100614.27
2018-12-19T04:01:21.452Z,100618.16
2018-12-19T04:03:49.645Z,100625.23
2018-12-19T04:06:17.962Z,100627.66
2018-12-19T04:08:46.690Z,100627.66
2018-12-19T04:11:14.980Z,100611.05
2018-12-19T04:13:43.093Z,100622.98
2018-12-19T04:16:11.377Z,100627.11
2018-12-19T04:18:39.689Z,100625.27
2018-12-19T04:21:07.928Z,100616.75
2018-12-19T04:23:36.136Z,100619.70
2018-12-19T04:26:04.301Z,100620.57
2018-12-19T04:28:32.581Z,100615.66
2018-12-19T04:31:00.779Z,100616.29
2018-12-19T04:33:29.163Z,100612.70
2018-12-19T04:35:57.582Z,100612.06
2018-12-19T04:38:26.305Z,100615.11
2018-12-19T04:40:54.456Z,100615.50
2018-12-19T04:43:22.546Z,100622.46
2018-12-19T04:45:50.697Z,100617.54
2018-12-19T04:48:18.975Z,100624.71
2018-12-19T04:50:47.082Z,100628.98
2018-12-19T04:53:15.353Z,100630.13
2018-12-19T04:55:43.580Z,100616.41
2018-12-19T04:58:11.918Z,100612.39
2018-12-19T05:00:40.166Z,100610.20
2018-12-19T05:03:08.992Z,100607.95
2018-12-19T05:05:37.090Z,100618.03
2018-12-19T05:08:05.473Z,100608.25
2018-12-19T05:10:33.635Z,100601.31
2018-12-19T05:13:02.050Z,100606.84
2018-12-19T05:15:30.222Z,100603.65
2018-12-19T05:17:58.526Z,100604.88
2018-12-19T05:20:27.386Z,100603.33
2018-12-19T05:22:55.484Z,100596.77
2018-12-19T05:25:30.421Z,100595.83
2018-12-19T05:27:58.570Z,100592.70
2018-12-19T05:30:26.737Z,100592.55
2018-12-19T05:32:55.054Z,100598.58
2018-12-19T05:35:23.157Z,100598.43
2018-12-19T05:37:51.256Z,100601.34
2018-12-19T05:40:19.587Z,100604.84
2018-12-19T05:42:47.912Z,100608.12
2018-12-19T05:45:16.031Z,100589.22
2018-12-19T05:47:44.203Z,100579.52
2018-12-19T05:50:13.969Z,100582.70
2018-12-19T05:52:42.091Z,100584.95
2018-12-19T05:55:10.365Z,100585.42
2018-12-19T05:57:38.811Z,100587.22
2018-12-19T06:00:08.132Z,100590.00
2018-12-19T06:02:36.421Z,100594.80
2018-12-19T06:05:05.884Z,100598.81
2018-12-19T06:07:34.099Z,100599.27
2018-12-19T06:10:02.259Z,100598.58
2018-12-19T06:12:30.389Z,100596.80
2018-12-19T06:14:58.557Z,100592.56
2018-12-19T06:17:26.661Z,100596.79
2018-12-19T06:19:54.902Z,100588.91
2018-12-19T06:22:23.279Z,100594.09
2018-12-19T06:24:51.645Z,100594.31
2018-12-19T06:27:19.785Z,100600.20
2018-12-19T06:29:47.975Z,100593.23
2018-12-19T06:32:16.114Z,100590.64
2018-12-19T06:34:44.432Z,100593.82
2018-12-19T06:37:13.305Z,100580.38
2018-12-19T06:39:41.448Z,100577.98
2018-12-19T06:42:09.537Z,100586.00
2018-12-19T06:44:38.432Z,100576.58
2018-12-19T06:47:06.787Z,100577.13
2018-12-19T06:49:35.031Z,100573.52
2018-12-19T06:52:04.227Z,100585.87
2018-12-19T06:54:32.289Z,100585.92
2018-12-19T06:57:00.488Z,100591.11
2018-12-19T06:59:28.609Z,100586.92
2018-12-19T07:01:57.395Z,100581.00
2018-12-19T07:04:25.542Z,100585.44
2018-12-19T07:06:53.755Z,100585.92
2018-12-19T07:09:23.606Z,100592.61
2018-12-19T07:11:52.807Z,100594.62
2018-12-19T07:14:20.885Z,100603.16
2018-12-19T07:16:48.977Z,100602.67
2018-12-19T07:19:17.285Z,100613.02
2018-12-19T07:21:45.456Z,100623.95
2018-12-19T07:24:13.863Z,100634.45
2018-12-19T07:26:41.978Z,100639.78
2018-12-19T07:29:10.204Z,100630.50
2018-12-19T07:31:38.340Z,100629.98
2018-12-19T07:34:06.670Z,100627.20
2018-12-19T07:36:34.866Z,100633.39
2018-12-19T07:39:06.154Z,100620.84
2018-12-19T07:41:34.636Z,100615.88
2018-12-19T07:44:02.780Z,100615.16
2018-12-19T07:46:31.176Z,100608.39
2018-12-19T07:48:59.984Z,100617.39
2018-12-19T07:51:28.162Z,100611.28
2018-12-19T07:53:57.330Z,100604.33
2018-12-19T07:56:25.484Z,100602.20
2018-12-19T07:58:54.136Z,100593.55
2018-12-19T08:01:22.306Z,100599.22
2018-12-19T08:03:50.409Z,100592.03
2018-12-19T08:06:18.518Z,100595.42
2018-12-19T08:08:46.633Z,100592.40
2018-12-19T08:11:15.519Z,100587.41
2018-12-19T08:13:43.635Z,100592.41
2018-12-19T08:16:11.936Z,100596.09
2018-12-19T08:18:40.973Z,100592.08
2018-12-19T08:21:09.410Z,100583.95
2018-12-19T08:23:37.521Z,100595.08
2018-12-19T08:26:05.861Z,100594.77
2018-12-19T08:28:34.112Z,100584.44
2018-12-19T08:31:02.569Z,100596.73
2018-12-19T08:33:30.765Z,100584.43
2018-12-19T08:35:59.117Z,100581.92
2018-12-19T08:38:28.530Z,100578.94
2018-12-19T08:40:58.860Z,100587.58
2018-12-19T08:43:27.714Z,100579.91
2018-12-19T08:45:56.339Z,100580.91
2018-12-19T08:48:24.524Z,100590.39
2018-12-19T08:50:52.871Z,100579.70
2018-12-19T08:53:21.192Z,100590.05
2018-12-19T08:55:49.411Z,100586.87
2018-12-19T08:58:17.606Z,100594.89
2018-12-19T09:00:45.976Z,100607.58
2018-12-19T09:03:14.327Z,100601.25
2018-12-19T09:05:42.677Z,100605.41
2018-12-19T09:08:11.459Z,100604.08
2018-12-19T09:10:39.616Z,100607.90
2018-12-19T09:13:07.963Z,100616.56
2018-12-19T09:15:42.054Z,100600.52
2018-12-19T09:18:10.228Z,100606.03
2018-12-19T09:20:38.403Z,100612.67
2018-12-19T09:23:06.552Z,100609.52
2018-12-19T09:25:34.975Z,100609.86
2018-12-19T09:28:04.051Z,100602.87
2018-12-19T09:30:32.395Z,100610.50
2018-12-19T09:33:00.508Z,100602.36
2018-12-19T09:35:28.702Z,100603.89
2018-12-19T09:37:56.891Z,100598.70
2018-12-19T09:40:25.086Z,100599.22
2018-12-19T09:42:53.261Z,100593.39
2018-12-19T09:45:21.386Z,100591.16
2018-12-19T09:47:49.533Z,100586.84
2018-12-19T09:50:17.684Z,100581.02
2018-12-19T09:52:45.913Z,100584.00
2018-12-19T09:57:48.682Z,100580.63
2018-12-19T10:00:22.591Z,100574.52
2018-12-19T10:02:50.764Z,100562.27
2018-12-19T10:05:19.193Z,100565.25
2018-12-19T10:07:47.422Z,100562.76
2018-12-19T10:10:15.614Z,100562.41
2018-12-19T10:12:43.736Z,100560.89
2018-12-19T10:15:11.900Z,100561.91
2018-12-19T10:17:40.981Z,100557.06
2018-12-19T10:20:09.756Z,100552.84
2018-12-19T10:22:37.997Z,100545.90
2018-12-19T10:25:12.158Z,100525.88
2018-12-19T10:27:40.406Z,100537.12
2018-12-19T10:30:11.489Z,100542.16
2018-12-19T10:32:40.212Z,100561.20
2018-12-19T10:35:10.666Z,100555.09
2018-12-19T10:37:38.803Z,100548.41
2018-12-19T10:40:11.251Z,100545.20
2018-12-19T10:42:39.456Z,100530.70
2018-12-19T10:45:10.012Z,100520.73
2018-12-19T10:47:38.175Z,100526.27
2018-12-19T10:50:09.378Z,100532.81
2018-12-19T10:52:37.631Z,100532.51
2018-12-19T10:55:08.758Z,100525.82
2018-12-19T10:57:37.075Z,100537.31
2018-12-19T11:00:19.638Z,100530.28
2018-12-19T11:02:47.901Z,100536.00
2018-12-19T11:05:16.035Z,100527.28
2018-12-19T11:07:44.194Z,100528.27
2018-12-19T11:10:12.365Z,100528.69
2018-12-19T11:12:40.603Z,100527.88
2018-12-19T11:15:10.375Z,100520.98
2018-12-19T11:17:38.587Z,100526.06
2018-12-19T11:20:09.599Z,100522.73
2018-12-19T11:22:37.822Z,100518.72
2018-12-19T11:25:06.819Z,100522.89
2018-12-19T11:27:34.947Z,100517.42
2018-12-19T11:30:04.121Z,100517.38
2018-12-19T11:32:32.250Z,100504.55
2018-12-19T11:35:00.599Z,100499.52
2018-12-19T11:37:28.802Z,100492.48
2018-12-19T11:39:57.137Z,100491.13
2018-12-19T11:42:25.628Z,100496.67
2018-12-19T11:44:53.969Z,100500.28
2018-12-19T11:47:22.192Z,100499.88
2018-12-19T11:49:50.383Z,100486.77
2018-12-19T11:52:18.572Z,100488.81
2018-12-19T11:54:46.846Z,100480.41
2018-12-19T11:57:15.358Z,100483.92
2018-12-19T11:59:43.633Z,100468.72
2018-12-19T12:02:11.905Z,100470.25
2018-12-19T12:04:40.118Z,100461.66
2018-12-19T12:07:08.920Z,100476.64
2018-12-19T12:09:37.070Z,100476.18
2018-12-19T12:12:05.301Z,100473.88
2018-12-19T12:14:33.645Z,100473.67
2018-12-19T12:17:02.025Z,100469.38
2018-12-19T12:19:30.220Z,100467.63
2018-12-19T12:21:58.412Z,100477.02
2018-12-19T12:24:26.621Z,100472.08
2018-12-19T12:26:54.807Z,100471.86
2018-12-19T12:29:22.967Z,100466.02
2018-12-19T12:31:51.234Z,100469.03
2018-12-19T12:34:19.437Z,100469.09
2018-12-19T12:36:47.692Z,100473.91
2018-12-19T12:39:16.091Z,100469.06
2018-12-19T12:41:44.268Z,100468.41
2018-12-19T12:44:12.431Z,100472.52
2018-12-19T12:46:40.662Z,100472.45
2018-12-19T12:49:08.962Z,100474.26
2018-12-19T12:51:37.158Z,100474.77
2018-12-19T12:54:05.857Z,100473.53
2018-12-19T12:56:33.988Z,100476.39
2018-12-19T12:59:02.134Z,100460.85
2018-12-19T13:01:30.288Z,100464.27
2018-12-19T13:03:58.467Z,100474.69
2018-12-19T13:06:26.762Z,100478.41
2018-12-19T13:08:55.138Z,100467.39
2018-12-19T13:11:23.269Z,100474.48
2018-12-19T13:13:51.392Z,100467.87
2018-12-19T13:16:19.612Z,100466.47
2018-12-19T13:18:47.840Z,100463.14
2018-12-19T13:21:16.004Z,100468.27
2018-12-19T13:23:44.213Z,100472.57
2018-12-19T13:26:12.530Z,100472.61
2018-12-19T13:28:40.668Z,100475.30
2018-12-19T13:31:08.892Z,100467.09
2018-12-19T13:33:37.222Z,100465.94
2018-12-19T13:36:05.391Z,100470.46
2018-12-19T13:38:33.610Z,100467.36
2018-12-19T13:41:01.887Z,100475.51
2018-12-19T13:43:30.082Z,100476.56
2018-12-19T13:45:58.282Z,100476.19
2018-12-19T13:48:26.487Z,100475.67
2018-12-19T13:50:54.684Z,100476.61
2018-12-19T13:53:22.882Z,100474.34
2018-12-19T13:55:51.088Z,100473.95
2018-12-19T13:58:19.867Z,100467.84
2018-12-19T14:00:48.038Z,100479.58
2018-12-19T14:03:16.417Z,100474.68
2018-12-19T14:05:44.596Z,100477.16
2018-12-19T14:08:12.785Z,100468.06
2018-12-19T14:10:41.145Z,100467.66
2018-12-19T14:13:09.314Z,100467.94
2018-12-19T14:15:37.509Z,100474.08
2018-12-19T14:18:05.633Z,100472.45
2018-12-19T14:20:33.798Z,100473.48
2018-12-19T14:23:02.013Z,100481.97
2018-12-19T14:25:30.357Z,100478.47
2018-12-19T14:27:58.569Z,100475.59
2018-12-19T14:30:26.869Z,100473.50
2018-12-19T14:32:55.167Z,100477.13
2018-12-19T14:35:23.529Z,100476.02
2018-12-19T14:37:51.633Z,100481.14
2018-12-19T14:40:20.008Z,100474.20
2018-12-19T14:42:48.295Z,100474.34
2018-12-19T14:45:16.482Z,100473.30
2018-12-19T14:47:45.524Z,100465.95
2018-12-19T14:50:13.889Z,100471.31
2018-12-19T14:52:42.085Z,100474.33
2018-12-19T14:55:10.699Z,100469.66
2018-12-19T14:57:38.978Z,100462.86
2018-12-19T15:00:09.737Z,100469.48
2018-12-19T15:02:38.075Z,100460.31
2018-12-19T15:05:06.539Z,100457.66
2018-12-19T15:07:34.702Z,100457.77
2018-12-19T15:10:03.695Z,100464.61
2018-12-19T15:12:31.845Z,100463.05
2018-12-19T15:15:00.066Z,100461.59
2018-12-19T15:17:28.996Z,100462.91
2018-12-19T15:19:57.171Z,100462.38
2018-12-19T15:22:25.416Z,100452.02
2018-12-19T15:24:53.601Z,100455.94
2018-12-19T15:27:21.869Z,100452.06
2018-12-19T15:29:49.988Z,100444.80
2018-12-19T15:32:18.241Z,100450.81
2018-12-19T15:34:46.522Z,100445.17
2018-12-19T15:37:14.796Z,100437.45
2018-12-19T15:39:42.996Z,100438.98
2018-12-19T15:42:11.132Z,100437.52
2018-12-19T15:44:39.260Z,100432.13
2018-12-19T15:47:07.532Z,100437.52
2018-12-19T15:49:35.632Z,100432.67
2018-12-19T15:52:03.903Z,100431.34
2018-12-19T15:54:38.863Z,100436.53
2018-12-19T15:57:07.292Z,100437.88
2018-12-19T15:59:35.825Z,100428.86
2018-12-19T16:02:04.742Z,100424.55
2018-12-19T16:04:32.963Z,100428.91
2018-12-19T16:07:01.305Z,100422.17
2018-12-19T16:09:29.491Z,100423.98
2018-12-19T16:11:57.847Z,100421.62
2018-12-19T16:14:26.090Z,100418.55
2018-12-19T16:16:54.230Z,100423.63
2018-12-19T16:19:22.648Z,100411.56
2018-12-19T16:21:50.984Z,100416.05
2018-12-19T16:24:19.261Z,100415.20
2018-12-19T16:26:47.410Z,100417.86
2018-12-19T16:29:15.553Z,100412.05
2018-12-19T16:31:43.708Z,100412.12
2018-12-19T16:34:12.086Z,100411.80
2018-12-19T16:36:40.257Z,100398.40
2018-12-19T16:39:09.132Z,100404.08
2018-12-19T16:41:37.364Z,100402.75
2018-12-19T16:44:05.551Z,100403.90
2018-12-19T16:46:34.331Z,100407.36
2018-12-19T16:49:02.576Z,100400.87
2018-12-19T16:51:30.898Z,100399.04
2018-12-19T16:53:59.162Z,100409.89
2018-12-19T16:56:27.334Z,100409.07
2018-12-19T16:58:55.563Z,100404.39
2018-12-19T17:01:23.784Z,100403.17
2018-12-19T17:03:52.059Z,100397.98
2018-12-19T17:06:20.268Z,100404.97
2018-12-19T17:08:48.516Z,100415.71
2018-12-19T17:11:17.113Z,100401.78
2018-12-19T17:13:45.367Z,100402.31
2018-12-19T17:16:14.053Z,100398.74
2018-12-19T17:18:42.605Z,100402.02
2018-12-19T17:21:10.799Z,100409.91
2018-12-19T17:23:38.995Z,100414.58
2018-12-19T17:26:07.093Z,100411.18
2018-12-19T17:28:35.233Z,100399.52
2018-12-19T17:31:03.466Z,100412.02
2018-12-19T17:33:31.593Z,100409.19
2018-12-19T17:35:59.909Z,100408.79
2018-12-19T17:38:28.110Z,100424.17
2018-12-19T17:40:56.274Z,100420.63
2018-12-19T17:43:24.482Z,100415.95
2018-12-19T17:45:52.640Z,100411.18
2018-12-19T17:48:20.740Z,100406.37
2018-12-19T17:50:48.902Z,100407.42
2018-12-19T17:53:17.118Z,100406.62
2018-12-19T17:55:45.234Z,100402.54
2018-12-19T17:58:13.367Z,100391.73
2018-12-19T18:00:41.568Z,100396.21
2018-12-19T18:03:09.889Z,100389.19
2018-12-19T18:05:38.098Z,100389.04
2018-12-19T18:08:06.232Z,100392.81
2018-12-19T18:10:34.462Z,100396.81
2018-12-19T18:13:06.070Z,100394.48
2018-12-19T18:15:32.791Z,100396.39
2018-12-19T18:18:01.000Z,100398.98
2018-12-19T18:20:29.210Z,100407.40
2018-12-19T18:22:57.407Z,100403.44
2018-12-19T18:25:25.515Z,100406.50
2018-12-19T18:27:53.706Z,100394.69
2018-12-19T18:30:21.864Z,100385.42
2018-12-19T18:32:50.113Z,100382.22
2018-12-19T18:35:18.290Z,100396.30
2018-12-19T18:37:46.493Z,100405.56
2018-12-19T18:40:14.689Z,100398.91
2018-12-19T18:42:42.871Z,100403.84
2018-12-19T18:45:11.963Z,100403.37
2018-12-19T18:47:40.766Z,100408.84
2018-12-19T18:50:08.960Z,100409.99
2018-12-19T18:52:37.146Z,100415.91
2018-12-19T18:55:06.646Z,100404.62
2018-12-19T18:57:34.887Z,100412.06
2018-12-19T19:00:04.380Z,100412.63
2018-12-19T19:02:32.829Z,100418.17
2018-12-19T19:05:01.152Z,100407.73
2018-12-19T19:07:29.461Z,100405.19
2018-12-19T19:09:57.762Z,100407.45
2018-12-19T19:12:25.927Z,100404.61
2018-12-19T19:14:54.121Z,100416.69
2018-12-19T19:17:22.311Z,100414.73
2018-12-19T19:19:50.615Z,100414.55
2018-12-19T19:22:18.917Z,100408.02
2018-12-19T19:24:47.177Z,100403.37
2018-12-19T19:27:15.324Z,100402.70
2018-12-19T19:29:43.583Z,100403.55
2018-12-19T19:32:11.723Z,100396.98
2018-12-19T19:34:39.911Z,100402.14
2018-12-19T19:37:08.246Z,100399.75
2018-12-19T19:39:36.474Z,100400.45
2018-12-19T19:42:04.711Z,100399.56
2018-12-19T19:44:33.046Z,100399.37
2018-12-19T19:47:01.362Z,100396.87
2018-12-19T19:49:29.530Z,100396.24
2018-12-19T19:51:57.826Z,100398.25
2018-12-19T19:54:26.008Z,100407.78
2018-12-19T19:56:54.227Z,100417.31
2018-12-19T20:02:06.211Z,100404.64
2018-12-19T20:04:34.346Z,100396.69
2018-12-19T20:07:02.660Z,100402.71
2018-12-19T20:09:30.915Z,100399.09
2018-12-19T20:11:59.045Z,100403.00
2018-12-19T20:14:27.343Z,100401.45
2018-12-19T20:17:00.993Z,100390.03
2018-12-19T20:19:29.932Z,100393.38
2018-12-19T20:21:58.080Z,100393.91
2018-12-19T20:24:26.250Z,100393.96
2018-12-19T20:26:54.547Z,100389.86
2018-12-19T20:29:22.733Z,100388.28
2018-12-19T20:31:50.883Z,100389.20
2018-12-19T20:34:19.079Z,100399.87
2018-12-19T20:36:47.287Z,100392.31
2018-12-19T20:39:15.490Z,100386.42
2018-12-19T20:41:43.624Z,100390.09
2018-12-19T20:44:11.920Z,100395.06
2018-12-19T20:46:40.098Z,100380.27
2018-12-19T20:49:08.290Z,100383.86
2018-12-19T20:51:36.427Z,100380.01
2018-12-19T20:54:04.569Z,100378.59
2018-12-19T20:56:32.645Z,100382.75
2018-12-19T20:59:00.778Z,100387.28
2018-12-19T21:01:29.031Z,100381.61
2018-12-19T21:03:57.152Z,100391.58
2018-12-19T21:06:25.351Z,100380.98
2018-12-19T21:08:53.528Z,100381.17
2018-12-19T21:11:21.699Z,100381.80
2018-12-19T21:13:49.979Z,100385.90
2018-12-19T21:16:20.185Z,100376.77
2018-12-19T21:18:51.673Z,100376.27
2018-12-19T21:21:19.856Z,100373.78
2018-12-19T21:23:48.024Z,100369.80
2018-12-19T21:26:16.253Z,100365.58
2018-12-19T21:28:44.518Z,100347.77
2018-12-19T21:31:12.913Z,100354.53
2018-12-19T21:33:41.142Z,100356.47
2018-12-19T21:36:09.485Z,100355.42
2018-12-19T21:38:37.812Z,100354.84
2018-12-19T21:41:06.064Z,100359.14
2018-12-19T21:43:34.198Z,100353.33
2018-12-19T21:46:02.512Z,100356.16
2018-12-19T21:48:30.716Z,100362.55
2018-12-19T21:50:58.934Z,100362.91
2018-12-19T21:53:27.134Z,100360.24
2018-12-19T21:55:55.552Z,100351.78
2018-12-19T21:58:23.972Z,100357.57
2018-12-19T22:00:52.304Z,100359.31
2018-12-19T22:03:20.658Z,100355.60
2018-12-19T22:05:49.102Z,100368.11
2018-12-19T22:08:17.258Z,100373.56
2018-12-19T22:10:45.552Z,100375.58
2018-12-19T22:13:13.981Z,100382.45
2018-12-19T22:15:42.326Z,100381.61
2018-12-19T22:18:18.102Z,100368.52
2018-12-19T22:20:46.273Z,100379.05
2018-12-19T22:23:14.470Z,100383.00
2018-12-19T22:25:43.268Z,100380.65
2018-12-19T22:28:11.475Z,100382.94
2018-12-19T22:30:39.708Z,100381.31
2018-12-19T22:33:08.121Z,100377.72
2018-12-19T22:35:36.427Z,100377.48
2018-12-19T22:38:04.675Z,100374.62
2018-12-19T22:40:32.867Z,100378.81
2018-12-19T22:43:01.159Z,100374.85
2018-12-19T22:45:29.266Z,100380.26
2018-12-19T22:47:57.576Z,100381.12
2018-12-19T22:50:25.951Z,100377.47
2018-12-19T22:52:54.723Z,100382.45
2018-12-19T22:55:22.977Z,100385.67
2018-12-19T22:57:51.218Z,100377.95
2018-12-19T23:00:20.449Z,100392.92
2018-12-19T23:03:08.761Z,100389.41
2018-12-19T23:05:42.799Z,100381.09
2018-12-19T23:08:11.070Z,100379.35
2018-12-19T23:10:39.324Z,100385.05
2018-12-19T23:13:07.511Z,100383.65
2018-12-19T23:15:35.687Z,100375.66
2018-12-19T23:18:10.022Z,100373.19
2018-12-19T23:20:38.503Z,100373.41
2018-12-19T23:23:06.636Z,100381.61
2018-12-19T23:25:34.723Z,100377.72
2018-12-19T23:28:03.002Z,100375.05
2018-12-19T23:30:31.441Z,100378.27
2018-12-19T23:33:00.102Z,100374.67
2018-12-19T23:35:28.350Z,100381.59
2018-12-19T23:37:56.662Z,100381.30
2018-12-19T23:40:24.782Z,100374.45
2018-12-19T23:42:53.108Z,100368.84
2018-12-19T23:45:21.333Z,100381.95
2018-12-19T23:47:49.762Z,100380.98
2018-12-19T23:50:17.933Z,100372.69
2018-12-19T23:52:46.081Z,100368.91
2018-12-19T23:55:14.494Z,100367.30
2018-12-19T23:57:42.801Z,100367.01
